aviador You're here:

LQSA Decoded Metar

SARAJEVO in BOSNIA-HERCEGOVINA
Report Time2018-04-21 07:30:00
UTC Time2018-04-21 07:59:41
Flight Rules vfr VFR
WindVRB at 02 kt
Visibility9999 m
Phenomena:N/A
Clouds:N/A
Expected CloudBase > 2,400 ft AGL from Temp-Dew spread
CeilingNone
Temp11°C (ISA -1)
Dew Point05°C (67% RH)
AAT9.2°C
QNH1022 hPa
Density Alt1,417 ft
Elevation1,677 ft
Report Wrong Elevation
Raw Report
LQSA 210730Z VRB02KT CAVOK 11/05 Q1022 NOSIG=

Extra information for LQSA:More info

Metar Taf Metar & Taf Last 4 Metars F.Rules Stats Wind Profile Meteogram Temp Stats Airport Information Weather charts Add Link Nearby VenuesMetar ALERT Operation Metar Decoded Social comments